Portada
METAR-TAF:

METAR-TAF

Aeroports :

Woodvale, Anglaterra

latitud: 53-34-54N, longitud: 003-03-20W, altitud: 11 m

METAR: manca

Hora: 16:49 (16:49 UTC)

Pronòstic

L'informe es va fer fa 27 hores i 8 minuts, a les 13:41 UTC
Pronòstic vàlid del 06 a les 15 UTC al 06 a les 18 UTC
Vent 20 kt del Oest amb ràfegues de 30 kt
Visibilitat 10 km o més
Cel ennuvolat a una alçada de 2500 ft
Temporalment
l' 06 a les 15 UTC al 06 a les 17 UTC
Visibilitat: 6000 m
Núvols disperses a una alçada de 1800 ft
xàfecs de pluja
Probabilitat 30% :
Temporalment
l' 06 a les 15 UTC al 06 a les 16 UTC
Vent 25 kt del Oest amb ràfegues de 40 kt
Visibilitat: 3000 m
Cel ennuvolat a una alçada de 1400 ft, Cumulonimbus.
xàfecs de pluja

TAF: EGOW 061341Z 0615/0618 26020G30KT 9999 BKN025 TEMPO 0615/0617 6000 SHRA SCT018 PROB30 TEMPO 0615/0616 28025G40KT 3000 +SHRA BKN014CB

Observacions i pronòstics meteorològics de més de 4000 aeroports (METAR i TAF).

Les estacions disponibles són els punts grocs i vermells al mapa.

Posi el ratolí al punt desitjat per veure el nom de l'estació.

Feu clic per veure les observacions i els pronòstics meteorològics.

Per canviar el mapa: feu clic els botons verds amb una creu de color negre per apropar; al botó verd amb un guió per allunyar la imatge; o en les fletxes verdes per a mapes adjacents.


METAR-TAF: